Time;durP1;ratioP1;P1;durP2;ratioP2;P2;SDS_P1;SDS_P2;PMS_P1;PMS_P2;Temp;Humidity;BMP_temperature;BMP_pressure;BME280_temperature;BME280_humidity;BME280_pressure;Samples;Min_cycle;Max_cycle;Signal;HPM_P1;HPM_P2
2023/05/20 00:01:55;;;;;;;0.10;0.10;;;15.20;99.90;;;;;;5133321;27;20020;-69
2023/05/20 00:04:21;;;;;;;4.10;1.42;;;15.10;99.90;;;;;;5133555;28;20763;-69
2023/05/20 00:06:47;;;;;;;6.78;2.75;;;15.10;99.90;;;;;;5115522;28;20080;-69
2023/05/20 00:09:12;;;;;;;0.38;0.20;;;15.00;99.90;;;;;;5133101;28;20036;-69
2023/05/20 00:11:38;;;;;;;0.45;0.43;;;14.60;99.90;;;;;;5115539;28;20031;-68
2023/05/20 00:14:04;;;;;;;0.17;0.17;;;14.70;99.90;;;;;;5105968;28;20114;-69
2023/05/20 00:16:30;;;;;;;0.68;0.68;;;14.80;99.90;;;;;;5128149;28;20114;-68
2023/05/20 00:18:56;;;;;;;0.43;0.43;;;14.70;99.90;;;;;;5133752;28;20473;-68
2023/05/20 00:21:21;;;;;;;1.75;0.60;;;14.70;99.90;;;;;;5133656;28;20402;-71
2023/05/20 00:23:47;;;;;;;0.20;0.20;;;14.70;99.90;;;;;;5133224;28;20016;-68
2023/05/20 00:26:13;;;;;;;7.65;0.38;;;14.70;99.90;;;;;;5133490;28;20436;-68
2023/05/20 00:28:40;;;;;;;0.10;0.10;;;14.60;99.90;;;;;;5133710;28;20041;-70
2023/05/20 00:31:06;;;;;;;0.38;0.38;;;14.70;99.90;;;;;;5133215;28;20102;-69
2023/05/20 00:33:32;;;;;;;0.20;0.20;;;14.50;99.90;;;;;;5133696;28;20067;-69
2023/05/20 00:35:57;;;;;;;0.10;0.10;;;14.50;99.90;;;;;;5133220;28;20019;-71
2023/05/20 00:38:23;;;;;;;0.25;0.25;;;14.40;99.90;;;;;;5114783;28;20118;-68
2023/05/20 00:40:49;;;;;;;0.15;0.15;;;14.40;99.90;;;;;;5133111;28;20023;-70
2023/05/20 00:43:15;;;;;;;0.60;0.52;;;14.40;99.90;;;;;;5133363;28;20038;-70
2023/05/20 00:45:41;;;;;;;0.32;0.15;;;14.40;99.90;;;;;;5114682;28;20007;-71
2023/05/20 00:48:07;;;;;;;0.57;0.57;;;14.40;99.90;;;;;;5097831;28;20472;-71
2023/05/20 00:50:33;;;;;;;0.10;0.10;;;14.40;99.90;;;;;;5133205;28;20031;-70
2023/05/20 00:52:58;;;;;;;0.17;0.17;;;14.40;99.90;;;;;;5114637;28;20051;-72
2023/05/20 00:55:24;;;;;;;0.43;0.43;;;14.30;99.90;;;;;;5114962;28;20031;-70
2023/05/20 00:57:51;;;;;;;0.22;0.22;;;14.30;99.90;;;;;;5133384;28;20090;-69
2023/05/20 01:00:17;;;;;;;0.65;0.60;;;14.30;99.90;;;;;;5133033;28;20054;-70
2023/05/20 01:02:43;;;;;;;1.02;0.98;;;14.30;99.90;;;;;;5133278;28;20511;-70
2023/05/20 01:05:09;;;;;;;0.30;0.30;;;14.30;99.90;;;;;;5114785;28;20024;-68
2023/05/20 01:07:35;;;;;;;0.20;0.20;;;14.30;99.90;;;;;;5114389;28;20035;-69
2023/05/20 01:10:01;;;;;;;0.10;0.10;;;14.20;99.90;;;;;;5114834;28;20106;-70
2023/05/20 01:12:36;;;;;;;0.20;0.20;;;14.30;99.90;;;;;;5133350;27;20053;-71
2023/05/20 01:15:08;;;;;;;0.10;0.10;;;14.30;99.90;;;;;;5115332;27;20031;-75
2023/05/20 01:17:38;;;;;;;0.50;0.50;;;14.20;99.90;;;;;;5136991;27;20095;-74
2023/05/20 01:20:07;;;;;;;0.28;0.28;;;14.20;99.90;;;;;;5136819;27;20379;-74
2023/05/20 01:22:35;;;;;;;0.28;0.25;;;14.10;99.90;;;;;;5101266;27;20156;-75
2023/05/20 01:25:01;;;;;;;1.42;0.20;;;14.30;99.90;;;;;;5117988;27;20429;-74
2023/05/20 01:27:29;;;;;;;0.20;0.20;;;14.20;99.90;;;;;;5136144;27;20403;-75
2023/05/20 01:29:55;;;;;;;0.22;0.22;;;14.10;99.90;;;;;;5136740;27;20019;-75
2023/05/20 01:32:25;;;;;;;1.77;0.75;;;14.10;99.90;;;;;;5117902;27;20030;-76
2023/05/20 01:34:52;;;;;;;2.30;1.85;;;14.20;99.90;;;;;;5118318;27;20053;-76
2023/05/20 01:37:20;;;;;;;0.20;0.20;;;14.00;99.90;;;;;;5135816;27;20349;-74
2023/05/20 01:39:48;;;;;;;0.10;0.10;;;14.00;99.90;;;;;;5117999;27;20019;-76
2023/05/20 01:42:15;;;;;;;0.20;0.20;;;14.00;99.90;;;;;;5135867;27;20057;-76
2023/05/20 01:44:41;;;;;;;3.42;0.52;;;13.90;99.90;;;;;;5117994;27;20046;-75
2023/05/20 01:47:07;;;;;;;0.07;0.07;;;13.80;99.90;;;;;;5117234;27;20128;-76
2023/05/20 01:49:33;;;;;;;13.05;0.38;;;13.80;99.90;;;;;;5117656;27;20128;-76
2023/05/20 01:51:59;;;;;;;1.05;0.90;;;13.90;99.90;;;;;;5100179;27;20023;-76
2023/05/20 01:54:25;;;;;;;0.20;0.20;;;13.80;99.90;;;;;;5135946;27;20023;-73
2023/05/20 01:56:52;;;;;;;3.58;3.38;;;13.60;99.90;;;;;;5117561;27;20143;-74
2023/05/20 01:59:18;;;;;;;0.38;0.28;;;13.60;99.90;;;;;;5117380;27;20038;-75
2023/05/20 02:01:44;;;;;;;0.10;0.10;;;13.70;99.90;;;;;;5101908;28;20076;-75
2023/05/20 02:04:14;;;;;;;0.13;0.13;;;13.70;99.90;;;;;;5097153;28;20080;-72
2023/05/20 02:06:40;;;;;;;0.80;0.47;;;13.80;99.90;;;;;;5100342;28;20035;-74
2023/05/20 02:09:06;;;;;;;0.10;0.10;;;13.80;99.90;;;;;;5135201;27;20117;-76
2023/05/20 02:11:32;;;;;;;0.10;0.10;;;13.70;99.90;;;;;;5121030;27;20110;-70
2023/05/20 02:13:58;;;;;;;0.10;0.10;;;13.80;99.90;;;;;;5117394;27;20076;-70
2023/05/20 02:16:24;;;;;;;0.10;0.10;;;13.60;99.90;;;;;;5116966;27;20426;-70
2023/05/20 02:18:51;;;;;;;0.13;0.13;;;13.60;99.90;;;;;;5108491;28;20388;-69
2023/05/20 02:21:17;;;;;;;0.10;0.10;;;13.50;99.90;;;;;;5094336;27;20026;-69
2023/05/20 02:23:44;;;;;;;0.20;0.20;;;13.50;99.90;;;;;;5135147;27;20030;-69
2023/05/20 02:26:09;;;;;;;0.52;0.52;;;13.50;99.90;;;;;;5116857;27;20109;-69
2023/05/20 02:28:39;;;;;;;0.10;0.10;;;13.60;99.90;;;;;;5134909;27;20153;-69
2023/05/20 02:31:05;;;;;;;1.63;1.02;;;13.50;99.90;;;;;;5135403;27;20102;-70
2023/05/20 02:33:31;;;;;;;0.20;0.20;;;13.60;99.90;;;;;;5116265;27;20022;-69
2023/05/20 02:35:56;;;;;;;1.92;1.63;;;13.50;99.90;;;;;;5107613;28;20019;-69
2023/05/20 02:38:22;;;;;;;0.17;0.17;;;13.50;99.90;;;;;;5111224;27;20039;-69
2023/05/20 02:40:48;;;;;;;0.10;0.10;;;13.50;99.90;;;;;;5135119;27;20048;-70
2023/05/20 02:43:15;;;;;;;0.10;0.10;;;13.70;99.90;;;;;;5116708;27;20031;-69
2023/05/20 02:45:41;;;;;;;0.10;0.10;;;13.60;99.90;;;;;;5116395;27;20102;-69
2023/05/20 02:48:06;;;;;;;0.13;0.13;;;13.60;99.90;;;;;;5115882;27;20039;-69
2023/05/20 02:50:32;;;;;;;0.20;0.20;;;13.50;99.90;;;;;;5116432;27;20072;-69
2023/05/20 02:52:58;;;;;;;0.10;0.10;;;13.40;99.90;;;;;;5116467;27;20025;-69
2023/05/20 02:55:24;;;;;;;0.10;0.10;;;13.50;99.90;;;;;;5134571;27;20483;-70
2023/05/20 02:57:50;;;;;;;0.10;0.10;;;13.50;99.90;;;;;;5116356;27;20091;-69
2023/05/20 03:00:15;;;;;;;0.20;0.20;;;13.50;99.90;;;;;;5116314;27;20027;-71
2023/05/20 03:02:41;;;;;;;0.20;0.20;;;13.40;99.90;;;;;;5115900;27;20157;-70
2023/05/20 03:05:08;;;;;;;0.43;0.22;;;13.30;99.90;;;;;;5116203;27;20117;-69
2023/05/20 03:07:35;;;;;;;0.10;0.10;;;13.30;99.90;;;;;;5115884;27;20027;-69
2023/05/20 03:10:01;;;;;;;0.30;0.30;;;13.30;99.90;;;;;;5107723;28;20035;-70
2023/05/20 03:12:29;;;;;;;0.57;0.57;;;13.30;99.90;;;;;;5110277;27;20027;-71
2023/05/20 03:14:57;;;;;;;0.80;0.80;;;13.20;99.90;;;;;;5134407;27;20030;-70
2023/05/20 03:17:23;;;;;;;0.73;0.73;;;13.20;99.90;;;;;;5115769;27;20030;-69
2023/05/20 03:19:49;;;;;;;0.10;0.10;;;13.10;99.90;;;;;;5134218;27;20399;-69
2023/05/20 03:22:15;;;;;;;0.15;0.15;;;13.10;99.90;;;;;;5115981;27;20046;-69
2023/05/20 03:24:41;;;;;;;0.28;0.28;;;13.00;99.90;;;;;;5115626;27;20035;-69
2023/05/20 03:27:08;;;;;;;0.10;0.10;;;13.10;99.90;;;;;;5134495;27;20059;-69
2023/05/20 03:29:34;;;;;;;0.10;0.10;;;13.10;99.90;;;;;;5098701;27;20113;-70
2023/05/20 03:32:00;;;;;;;2.10;1.50;;;13.00;99.90;;;;;;5134034;27;20446;-75
2023/05/20 03:34:27;;;;;;;0.40;0.40;;;13.00;99.90;;;;;;5115599;27;20030;-73
2023/05/20 03:36:54;;;;;;;0.20;0.20;;;13.10;99.90;;;;;;5114887;27;20026;-75
2023/05/20 03:39:20;;;;;;;0.38;0.38;;;13.00;99.90;;;;;;5133935;27;20864;-75
2023/05/20 03:41:45;;;;;;;0.63;0.63;;;13.00;99.90;;;;;;5133728;27;20099;-74
2023/05/20 03:44:12;;;;;;;0.10;0.10;;;12.90;99.90;;;;;;5115436;28;20078;-75
2023/05/20 03:46:38;;;;;;;0.57;0.57;;;13.10;99.90;;;;;;5115249;27;20063;-74
2023/05/20 03:49:05;;;;;;;0.10;0.10;;;13.00;99.90;;;;;;5115137;27;20039;-75
2023/05/20 03:51:30;;;;;;;0.10;0.10;;;13.00;99.90;;;;;;5133348;27;20024;-74
2023/05/20 03:54:03;;;;;;;0.35;0.35;;;13.00;99.90;;;;;;5115116;28;20057;-75
2023/05/20 03:56:29;;;;;;;1.20;1.10;;;13.00;99.90;;;;;;5115272;28;20051;-74
2023/05/20 03:58:55;;;;;;;0.17;0.17;;;12.90;99.90;;;;;;5115234;28;20023;-76
2023/05/20 04:01:24;;;;;;;0.30;0.30;;;13.00;99.90;;;;;;5115032;28;20467;-71
2023/05/20 04:03:50;;;;;;;0.32;0.32;;;13.00;99.90;;;;;;5115033;28;20019;-73
2023/05/20 04:06:16;;;;;;;0.20;0.20;;;12.90;99.90;;;;;;5115166;28;20015;-75
2023/05/20 04:08:41;;;;;;;1.25;1.25;;;12.80;99.90;;;;;;5133566;28;20543;-75
2023/05/20 04:11:07;;;;;;;0.10;0.10;;;12.80;99.90;;;;;;5083969;28;20095;-73
2023/05/20 04:13:33;;;;;;;0.95;0.95;;;12.90;99.90;;;;;;5133574;28;20035;-74
2023/05/20 04:16:00;;;;;;;0.52;0.52;;;12.90;99.90;;;;;;5114640;28;20043;-75
2023/05/20 04:18:30;;;;;;;0.15;0.15;;;12.90;99.90;;;;;;5114910;28;20023;-75
2023/05/20 04:20:56;;;;;;;1.08;0.90;;;13.00;99.90;;;;;;5115161;28;20026;-73
2023/05/20 04:23:22;;;;;;;0.45;0.45;;;12.80;99.90;;;;;;5115164;28;20035;-75
2023/05/20 04:25:48;;;;;;;0.10;0.10;;;12.70;99.90;;;;;;5114951;28;20547;-75
2023/05/20 04:28:15;;;;;;;0.10;0.10;;;12.70;99.90;;;;;;5114877;28;20110;-75
2023/05/20 04:30:43;;;;;;;0.10;0.10;;;12.80;99.90;;;;;;5114477;28;20476;-75
2023/05/20 04:33:10;;;;;;;0.32;0.28;;;12.80;99.90;;;;;;5112527;28;20023;-75
2023/05/20 04:35:37;;;;;;;0.08;0.08;;;12.90;99.90;;;;;;5103535;28;20029;-74
2023/05/20 04:38:04;;;;;;;0.17;0.17;;;12.90;99.90;;;;;;5114902;28;20027;-73
2023/05/20 04:40:31;;;;;;;0.20;0.20;;;13.00;99.90;;;;;;5114678;28;20372;-75
2023/05/20 04:42:59;;;;;;;2.35;0.63;;;13.10;99.90;;;;;;5114324;28;20035;-75
2023/05/20 04:45:25;;;;;;;0.10;0.10;;;13.10;99.90;;;;;;5097467;28;20031;-73
2023/05/20 04:47:52;;;;;;;0.22;0.22;;;13.00;99.90;;;;;;5116801;27;20084;-75
2023/05/20 04:50:18;;;;;;;1.67;1.10;;;13.00;99.90;;;;;;5118602;27;20063;-75
2023/05/20 04:52:44;;;;;;;0.10;0.10;;;13.10;99.90;;;;;;5118845;27;20026;-74
2023/05/20 04:55:11;;;;;;;0.10;0.10;;;13.10;99.90;;;;;;5136899;27;20488;-74
2023/05/20 04:57:40;;;;;;;1.95;0.63;;;13.20;99.90;;;;;;5118741;27;20019;-76
2023/05/20 05:00:11;;;;;;;0.15;0.15;;;13.20;99.90;;;;;;5136732;27;20459;-75
2023/05/20 05:02:37;;;;;;;0.65;0.52;;;13.20;99.90;;;;;;5101683;27;20019;-73
2023/05/20 05:05:03;;;;;;;0.10;0.10;;;13.10;99.90;;;;;;5118829;27;20028;-70
2023/05/20 05:07:29;;;;;;;0.88;0.63;;;13.20;99.90;;;;;;5118548;27;20102;-70
2023/05/20 05:09:55;;;;;;;0.10;0.10;;;13.10;99.90;;;;;;5110831;28;20484;-69
2023/05/20 05:12:21;;;;;;;0.20;0.20;;;13.10;99.90;;;;;;5111654;27;20030;-71
2023/05/20 05:14:47;;;;;;;0.10;0.10;;;13.20;99.90;;;;;;5117813;27;20382;-70
2023/05/20 05:17:14;;;;;;;0.10;0.10;;;13.10;99.90;;;;;;5118282;27;20057;-69
2023/05/20 05:19:40;;;;;;;0.00;0.00;;;13.20;99.90;;;;;;5118275;27;20027;-71
2023/05/20 05:22:06;;;;;;;0.20;0.20;;;13.20;99.90;;;;;;5118175;27;20068;-69
2023/05/20 05:24:33;;;;;;;0.10;0.10;;;13.20;99.90;;;;;;5118102;27;20518;-69
2023/05/20 05:26:59;;;;;;;0.30;0.30;;;13.10;99.90;;;;;;5117986;27;20451;-69
2023/05/20 05:29:25;;;;;;;0.20;0.20;;;13.20;99.90;;;;;;5117815;27;20139;-69
2023/05/20 05:31:51;;;;;;;0.10;0.10;;;13.40;99.90;;;;;;5117831;27;20063;-69
2023/05/20 05:34:17;;;;;;;6.28;1.10;;;13.50;99.90;;;;;;5118113;27;20568;-69
2023/05/20 05:36:43;;;;;;;0.10;0.10;;;13.50;99.90;;;;;;5100689;27;20061;-69
2023/05/20 05:39:09;;;;;;;0.25;0.25;;;13.50;99.90;;;;;;5117903;27;20111;-69
2023/05/20 05:41:35;;;;;;;0.32;0.32;;;13.60;99.90;;;;;;5117473;27;20398;-69
2023/05/20 05:44:01;;;;;;;0.15;0.15;;;13.60;99.90;;;;;;5117685;27;20164;-70
2023/05/20 05:46:27;;;;;;;0.43;0.43;;;13.70;99.90;;;;;;5117663;27;20490;-69
2023/05/20 05:48:53;;;;;;;18.75;10.65;;;13.80;99.90;;;;;;5136132;27;20031;-70
2023/05/20 05:51:19;;;;;;;0.10;0.10;;;13.80;99.90;;;;;;5117877;27;20592;-69
2023/05/20 05:53:47;;;;;;;0.43;0.43;;;13.90;99.90;;;;;;5117849;27;20042;-69
2023/05/20 05:56:14;;;;;;;0.20;0.20;;;14.10;99.90;;;;;;5117180;27;20016;-74
2023/05/20 05:58:39;;;;;;;0.20;0.20;;;14.20;99.90;;;;;;5116871;27;20463;-75
2023/05/20 06:01:06;;;;;;;0.10;0.10;;;14.30;99.90;;;;;;5117371;27;20015;-74
2023/05/20 06:03:32;;;;;;;0.10;0.10;;;14.40;99.90;;;;;;5117064;27;20038;-74
2023/05/20 06:05:57;;;;;;;0.45;0.22;;;14.60;99.90;;;;;;5117344;27;20015;-75
2023/05/20 06:08:23;;;;;;;0.10;0.10;;;14.70;99.90;;;;;;5117334;27;20031;-75
2023/05/20 06:10:49;;;;;;;0.50;0.50;;;14.70;99.90;;;;;;5102665;27;20022;-75
2023/05/20 06:13:16;;;;;;;0.22;0.22;;;14.70;99.90;;;;;;5116927;27;20031;-75
2023/05/20 06:15:43;;;;;;;0.20;0.20;;;14.70;99.90;;;;;;5135667;27;20027;-74
2023/05/20 06:18:08;;;;;;;0.40;0.40;;;14.80;99.90;;;;;;5135304;27;20030;-74
2023/05/20 06:20:34;;;;;;;0.25;0.25;;;15.00;99.90;;;;;;5117131;27;20023;-75
2023/05/20 06:23:00;;;;;;;0.10;0.10;;;15.00;99.90;;;;;;5116816;27;20467;-75
2023/05/20 06:25:34;;;;;;;1.90;0.65;;;15.10;99.90;;;;;;5116806;27;20024;-75
2023/05/20 06:28:00;;;;;;;0.13;0.13;;;15.30;99.90;;;;;;5116632;27;20604;-74
2023/05/20 06:30:26;;;;;;;0.10;0.10;;;15.50;99.90;;;;;;5116912;27;20506;-74
2023/05/20 06:32:52;;;;;;;0.10;0.10;;;15.50;99.90;;;;;;5116460;27;20402;-75
2023/05/20 06:35:18;;;;;;;1.00;0.40;;;15.70;99.90;;;;;;5116804;27;20056;-75
2023/05/20 06:37:44;;;;;;;0.30;0.30;;;15.70;99.90;;;;;;5116693;27;20023;-71
2023/05/20 06:40:11;;;;;;;0.10;0.10;;;15.80;99.90;;;;;;5134646;27;20094;-74
2023/05/20 06:42:37;;;;;;;0.10;0.10;;;15.70;99.90;;;;;;5116417;27;20509;-75
2023/05/20 06:45:05;;;;;;;4.28;1.08;;;15.80;99.90;;;;;;5116467;27;20035;-75
2023/05/20 06:47:35;;;;;;;0.47;0.40;;;15.90;99.90;;;;;;5116364;27;20034;-74
2023/05/20 06:50:01;;;;;;;0.13;0.13;;;16.00;99.90;;;;;;5116507;27;20023;-74
2023/05/20 06:52:28;;;;;;;0.40;0.40;;;16.10;99.90;;;;;;5116553;27;20110;-72
2023/05/20 06:54:54;;;;;;;0.00;0.00;;;16.30;99.90;;;;;;5116173;27;20509;-73
2023/05/20 06:57:21;;;;;;;0.20;0.20;;;16.50;99.90;;;;;;5099645;27;20058;-75
2023/05/20 06:59:47;;;;;;;0.35;0.35;;;16.50;99.90;;;;;;5134682;27;20027;-74
2023/05/20 07:02:14;;;;;;;0.20;0.20;;;16.50;99.90;;;;;;5116253;27;20023;-75
2023/05/20 07:04:41;;;;;;;0.08;0.08;;;16.50;99.90;;;;;;5116203;27;20031;-74
2023/05/20 07:07:07;;;;;;;1.52;1.38;;;16.60;99.90;;;;;;5116110;27;20023;-74
2023/05/20 07:09:33;;;;;;;1.65;0.82;;;16.60;99.90;;;;;;5129512;27;20076;-73
2023/05/20 07:12:00;;;;;;;0.20;0.20;;;16.50;99.90;;;;;;5105223;27;20027;-74
2023/05/20 07:14:26;;;;;;;0.28;0.28;;;16.70;99.90;;;;;;5115803;27;20035;-73
2023/05/20 07:16:52;;;;;;;0.00;0.00;;;16.60;99.90;;;;;;5116051;27;20118;-73
2023/05/20 07:19:18;;;;;;;0.52;0.28;;;16.70;99.90;;;;;;5115720;27;20027;-73
2023/05/20 07:21:44;;;;;;;0.75;0.75;;;16.80;99.90;;;;;;5115767;27;20027;-73
2023/05/20 07:24:28;;;;;;;0.10;0.10;;;16.90;99.90;;;;;;5134127;27;20171;-74
2023/05/20 07:26:56;;;;;;;0.17;0.17;;;17.10;99.90;;;;;;5115844;27;20019;-74
2023/05/20 07:29:21;;;;;;;0.73;0.20;;;17.20;99.90;;;;;;5115698;27;20490;-73
2023/05/20 07:31:47;;;;;;;0.13;0.13;;;17.30;99.90;;;;;;5134001;27;20024;-74
2023/05/20 07:34:15;;;;;;;1.10;0.32;;;17.30;99.90;;;;;;5115330;27;20542;-75
2023/05/20 07:36:40;;;;;;;0.80;0.80;;;17.40;99.90;;;;;;5115785;27;20168;-73
2023/05/20 07:39:09;;;;;;;0.40;0.40;;;17.70;99.90;;;;;;5115414;27;20019;-74
2023/05/20 07:41:36;;;;;;;0.57;0.57;;;17.80;99.90;;;;;;5115173;27;20118;-73
2023/05/20 07:44:03;;;;;;;0.00;0.00;;;17.90;99.90;;;;;;5115620;27;20031;-74
2023/05/20 07:46:30;;;;;;;0.22;0.22;;;18.00;99.90;;;;;;5115370;28;20053;-73
2023/05/20 07:48:56;;;;;;;0.10;0.10;;;18.10;99.90;;;;;;5115319;27;20495;-72
2023/05/20 07:51:22;;;;;;;0.00;0.00;;;18.30;99.90;;;;;;5115682;27;20023;-75
2023/05/20 07:53:48;;;;;;;0.10;0.10;;;18.40;99.90;;;;;;5114934;27;20106;-73
2023/05/20 07:56:14;;;;;;;0.00;0.00;;;18.50;99.90;;;;;;5115316;27;20023;-72
2023/05/20 07:58:41;;;;;;;0.60;0.47;;;18.50;99.90;;;;;;5115334;28;20037;-74
2023/05/20 08:01:08;;;;;;;0.00;0.00;;;18.50;99.90;;;;;;5115298;28;20425;-74
2023/05/20 08:03:35;;;;;;;1.55;0.98;;;18.60;99.90;;;;;;5115330;28;20024;-75
2023/05/20 08:06:06;;;;;;;0.15;0.13;;;18.70;99.90;;;;;;5115196;28;20026;-75
2023/05/20 08:08:32;;;;;;;0.00;0.00;;;19.00;99.90;;;;;;5133481;28;20035;-75
2023/05/20 08:11:12;;;;;;;0.08;0.08;;;19.10;99.70;;;;;;5101165;28;20015;-70
2023/05/20 08:13:39;;;;;;;0.00;0.00;;;19.20;99.40;;;;;;5115456;28;20403;-69
2023/05/20 08:16:05;;;;;;;0.52;0.45;;;19.50;99.20;;;;;;5133623;28;20026;-69
2023/05/20 08:18:33;;;;;;;1.17;0.80;;;19.50;99.10;;;;;;5115340;28;20106;-70
2023/05/20 08:20:59;;;;;;;0.75;0.73;;;19.40;98.70;;;;;;5133244;28;20114;-71
2023/05/20 08:23:26;;;;;;;0.32;0.32;;;19.40;98.80;;;;;;5117574;27;20448;-70
2023/05/20 08:25:52;;;;;;;0.60;0.55;;;19.70;98.50;;;;;;5119271;27;20023;-75
2023/05/20 08:28:20;;;;;;;0.98;0.22;;;20.00;97.50;;;;;;5119161;27;20445;-74
2023/05/20 08:30:47;;;;;;;0.40;0.38;;;20.00;97.40;;;;;;5119220;27;20023;-75
2023/05/20 08:33:14;;;;;;;3.53;0.85;;;20.00;97.80;;;;;;5119320;27;20015;-73
2023/05/20 08:35:40;;;;;;;0.17;0.17;;;19.90;98.40;;;;;;5119254;27;20117;-74
2023/05/20 08:38:06;;;;;;;0.80;0.73;;;20.00;98.20;;;;;;5137245;27;20189;-73
2023/05/20 08:40:35;;;;;;;1.45;0.85;;;20.00;97.40;;;;;;5137404;27;20128;-72
2023/05/20 08:43:01;;;;;;;0.38;0.38;;;19.80;96.70;;;;;;5137630;27;20035;-74
2023/05/20 08:45:31;;;;;;;0.95;0.95;;;19.70;97.00;;;;;;5118810;27;20402;-75
2023/05/20 08:48:03;;;;;;;0.20;0.20;;;19.90;97.40;;;;;;5119066;27;20035;-71
2023/05/20 08:50:29;;;;;;;0.40;0.40;;;20.10;97.00;;;;;;5137088;27;20398;-74
2023/05/20 08:52:55;;;;;;;2.50;0.68;;;20.00;97.10;;;;;;5137221;27;20022;-70
2023/05/20 08:56:01;;;;;;;0.10;0.10;;;20.40;97.00;;;;;;5136804;27;20058;-69
2023/05/20 08:58:28;;;;;;;0.10;0.10;;;20.40;96.00;;;;;;5053618;28;20052;-69
2023/05/20 09:00:55;;;;;;;0.05;0.05;;;20.70;95.50;;;;;;5123261;27;20475;-70
2023/05/20 09:03:21;;;;;;;0.00;0.00;;;20.60;95.80;;;;;;5137025;27;20015;-70
2023/05/20 09:05:47;;;;;;;0.13;0.13;;;20.70;95.60;;;;;;5136577;27;20386;-70
2023/05/20 09:08:13;;;;;;;0.20;0.20;;;20.80;95.40;;;;;;5137026;27;20031;-71
2023/05/20 09:10:40;;;;;;;0.10;0.10;;;20.70;95.20;;;;;;5122842;27;20032;-70
2023/05/20 09:13:07;;;;;;;2.60;0.50;;;20.90;95.70;;;;;;5136472;27;20038;-70
2023/05/20 09:15:34;;;;;;;2.55;0.35;;;21.10;95.00;;;;;;5136739;27;20030;-70
2023/05/20 09:18:05;;;;;;;0.55;0.55;;;20.90;94.10;;;;;;5136483;27;20114;-70
2023/05/20 09:20:36;;;;;;;0.20;0.20;;;20.80;94.40;;;;;;5136304;27;20100;-69
2023/05/20 09:23:06;;;;;;;0.45;0.17;;;21.00;94.50;;;;;;5136390;27;20023;-72
2023/05/20 09:25:32;;;;;;;0.00;0.00;;;21.00;94.00;;;;;;5136613;27;20486;-69
2023/05/20 09:27:58;;;;;;;0.57;0.57;;;21.30;94.30;;;;;;5136544;27;20036;-70
2023/05/20 09:30:24;;;;;;;0.10;0.10;;;21.50;93.20;;;;;;5136403;27;20034;-69
2023/05/20 09:32:58;;;;;;;0.93;0.80;;;21.10;93.30;;;;;;5117650;27;20039;-69
2023/05/20 09:35:25;;;;;;;0.10;0.10;;;21.10;93.90;;;;;;5135067;27;20482;-71
2023/05/20 09:37:53;;;;;;;0.10;0.10;;;21.30;94.10;;;;;;5136604;27;20070;-70
2023/05/20 09:40:27;;;;;;;0.08;0.08;;;21.60;94.10;;;;;;5136116;27;20039;-69
2023/05/20 09:42:57;;;;;;;0.10;0.10;;;22.00;93.50;;;;;;5136050;27;20027;-70
2023/05/20 09:45:23;;;;;;;0.40;0.40;;;22.30;93.10;;;;;;5136082;27;20027;-70
2023/05/20 09:47:53;;;;;;;1.25;0.52;;;22.40;93.10;;;;;;5136139;27;20032;-70
2023/05/20 09:50:20;;;;;;;1.30;1.05;;;22.40;92.80;;;;;;5135819;27;20034;-69
2023/05/20 09:52:51;;;;;;;17.27;1.38;;;22.50;92.40;;;;;;5136166;27;20102;-70
2023/05/20 09:55:18;;;;;;;0.30;0.30;;;22.00;92.30;;;;;;5135767;27;20046;-70
2023/05/20 09:57:45;;;;;;;0.00;0.00;;;21.70;92.40;;;;;;5135856;27;20479;-71
2023/05/20 10:00:14;;;;;;;0.40;0.25;;;22.00;92.60;;;;;;5136241;27;20492;-71
2023/05/20 10:02:53;;;;;;;0.93;0.70;;;22.00;92.90;;;;;;5135610;27;20027;-70
2023/05/20 10:05:34;;;;;;;3.28;0.85;;;21.90;92.40;;;;;;5135510;27;20015;-71
2023/05/20 10:08:06;;;;;;;;;;;21.60;92.70;;;;;;5136046;27;20035;-69
2023/05/20 10:10:37;;;;;;;0.60;0.60;;;21.70;93.20;;;;;;5122474;27;19908;-69
2023/05/20 10:13:41;;;;;;;0.38;0.38;;;21.80;92.20;;;;;;5134431;27;20195;-70
2023/05/20 10:16:12;;;;;;;0.68;0.68;;;21.90;92.10;;;;;;5051825;28;20123;-73
2023/05/20 10:18:49;;;;;;;5.13;0.40;;;22.40;92.10;;;;;;5051812;28;20044;-70
2023/05/20 10:21:17;;;;;;;1.23;0.68;;;22.60;92.30;;;;;;5100220;27;20827;-70
2023/05/20 10:23:43;;;;;;;0.10;0.10;;;23.20;91.60;;;;;;5135133;27;20039;-70
2023/05/20 10:26:09;;;;;;;0.10;0.10;;;23.20;91.10;;;;;;5135520;27;20071;-70
2023/05/20 10:28:36;;;;;;;0.08;0.08;;;23.20;90.80;;;;;;5134949;27;20031;-70
2023/05/20 10:31:13;;;;;;;0.32;0.10;;;23.10;90.90;;;;;;5135253;27;20119;-73
2023/05/20 10:33:44;;;;;;;0.30;0.30;;;23.40;91.20;;;;;;5134834;27;20043;-71
2023/05/20 10:36:20;;;;;;;1.85;0.30;;;23.40;90.80;;;;;;5134944;27;20091;-70
2023/05/20 10:38:54;;;;;;;0.93;0.88;;;23.70;90.70;;;;;;5134840;27;20424;-72
2023/05/20 10:41:22;;;;;;;0.30;0.30;;;23.40;90.90;;;;;;5134806;27;20091;-70
2023/05/20 10:44:02;;;;;;;1.30;0.82;;;23.50;90.40;;;;;;5134879;27;20039;-70
2023/05/20 10:46:29;;;;;;;2.00;0.98;;;23.10;90.70;;;;;;5134234;27;20052;-69
2023/05/20 10:48:56;;;;;;;1.10;0.40;;;23.20;90.40;;;;;;5134938;27;20127;-70
2023/05/20 10:51:22;;;;;;;1.40;0.63;;;22.80;90.80;;;;;;5134874;27;20039;-70
2023/05/20 10:53:53;;;;;;;0.73;0.40;;;22.90;91.80;;;;;;5134736;27;20029;-71
2023/05/20 10:56:20;;;;;;;0.30;0.10;;;23.10;90.40;;;;;;5134929;27;20039;-73
2023/05/20 10:58:47;;;;;;;0.17;0.13;;;23.20;90.20;;;;;;5134546;27;20027;-70
2023/05/20 11:01:13;;;;;;;0.15;0.15;;;23.10;90.30;;;;;;5134536;27;20047;-71
2023/05/20 11:03:43;;;;;;;1.58;1.00;;;23.30;90.60;;;;;;5134375;27;20067;-70
2023/05/20 11:06:17;;;;;;;0.33;0.33;;;23.20;88.40;;;;;;5116539;27;20026;-70
2023/05/20 11:08:43;;;;;;;0.08;0.08;;;22.90;90.00;;;;;;5134089;27;20099;-69
2023/05/20 11:11:13;;;;;;;0.13;0.13;;;23.20;90.80;;;;;;5119937;27;20030;-70
2023/05/20 11:13:40;;;;;;;0.20;0.20;;;23.50;90.30;;;;;;5116189;27;20031;-70
2023/05/20 11:16:06;;;;;;;0.32;0.32;;;23.60;90.40;;;;;;5134121;27;20015;-71
2023/05/20 11:18:32;;;;;;;0.30;0.30;;;23.60;90.40;;;;;;5134428;27;20035;-72
2023/05/20 11:20:59;;;;;;;0.03;0.03;;;24.10;90.20;;;;;;5134198;27;20034;-74
2023/05/20 11:23:27;;;;;;;0.28;0.28;;;24.70;87.60;;;;;;5134409;27;20027;-72
2023/05/20 11:25:54;;;;;;;0.63;0.52;;;24.20;87.20;;;;;;5134248;27;20120;-71
2023/05/20 11:28:20;;;;;;;1.13;0.95;;;23.40;89.30;;;;;;5133822;27;20043;-70
2023/05/20 11:30:47;;;;;;;0.88;0.45;;;23.60;90.00;;;;;;5134124;27;20027;-75
2023/05/20 11:33:15;;;;;;;1.13;0.73;;;23.80;89.50;;;;;;5134311;27;20023;-74
2023/05/20 11:35:50;;;;;;;0.10;0.10;;;24.20;90.10;;;;;;5134070;27;20023;-71
2023/05/20 11:38:16;;;;;;;0.30;0.30;;;24.80;89.00;;;;;;5115750;27;20034;-71
2023/05/20 11:40:46;;;;;;;0.40;0.40;;;25.30;87.90;;;;;;5115392;27;20074;-74
2023/05/20 11:43:13;;;;;;;0.45;0.45;;;25.00;87.50;;;;;;5134019;27;20039;-73
2023/05/20 11:45:43;;;;;;;0.10;0.10;;;25.10;87.70;;;;;;5133798;27;20019;-71
2023/05/20 11:48:11;;;;;;;0.17;0.17;;;24.90;88.00;;;;;;5133864;27;20049;-74
2023/05/20 11:50:42;;;;;;;0.20;0.20;;;25.10;88.40;;;;;;5133870;27;20020;-72
2023/05/20 11:53:09;;;;;;;1.65;0.63;;;25.20;87.50;;;;;;5134152;27;20039;-73
2023/05/20 11:55:48;;;;;;;0.03;0.03;;;24.90;87.60;;;;;;5133599;27;20019;-72
2023/05/20 11:58:27;;;;;;;0.10;0.10;;;25.10;89.00;;;;;;5133324;27;20035;-75
2023/05/20 12:00:53;;;;;;;0.00;0.00;;;25.70;88.80;;;;;;5133420;27;20106;-73
2023/05/20 12:03:19;;;;;;;0.20;0.20;;;26.20;87.30;;;;;;5127442;27;20496;-74
2023/05/20 12:05:47;;;;;;;0.20;0.20;;;26.30;86.20;;;;;;5119904;28;20572;-71
2023/05/20 12:08:13;;;;;;;0.28;0.28;;;26.30;86.80;;;;;;5134225;28;20039;-73
2023/05/20 12:10:39;;;;;;;0.30;0.30;;;26.00;86.40;;;;;;5119964;28;20150;-71
2023/05/20 12:13:10;;;;;;;0.00;0.00;;;26.00;86.10;;;;;;5133258;28;20071;-70
2023/05/20 12:15:39;;;;;;;0.20;0.20;;;26.10;86.40;;;;;;5114951;28;20019;-70
2023/05/20 12:18:05;;;;;;;0.47;0.47;;;26.30;87.00;;;;;;5133936;28;20398;-70
2023/05/20 12:20:33;;;;;;;0.00;0.00;;;25.90;85.50;;;;;;5133946;28;20034;-70
2023/05/20 12:23:00;;;;;;;1.65;0.77;;;25.50;86.10;;;;;;5133474;28;20023;-70
2023/05/20 12:25:25;;;;;;;0.45;0.38;;;25.50;87.10;;;;;;5133509;28;20019;-69
2023/05/20 12:27:51;;;;;;;1.00;0.75;;;25.50;87.50;;;;;;5133386;28;20038;-69
2023/05/20 12:30:19;;;;;;;1.67;0.65;;;25.60;85.80;;;;;;5115066;28;20018;-69
2023/05/20 12:32:46;;;;;;;1.25;0.70;;;25.40;86.90;;;;;;5133610;28;20363;-69
2023/05/20 12:35:12;;;;;;;0.10;0.10;;;25.50;85.90;;;;;;5133334;28;20054;-70
2023/05/20 12:37:40;;;;;;;0.10;0.10;;;25.90;87.60;;;;;;5133343;28;20054;-70
2023/05/20 12:40:07;;;;;;;0.95;0.95;;;26.20;85.00;;;;;;5133120;28;20060;-69
2023/05/20 12:42:43;;;;;;;0.10;0.10;;;27.00;84.80;;;;;;5133248;28;20062;-69
2023/05/20 12:45:09;;;;;;;1.25;0.75;;;27.40;85.10;;;;;;5114671;28;20143;-71
2023/05/20 12:47:35;;;;;;;0.57;0.37;;;26.90;84.00;;;;;;5133502;28;20019;-69
2023/05/20 12:50:02;;;;;;;0.43;0.43;;;26.80;86.50;;;;;;5133080;28;20440;-70